Time;durP1;ratioP1;P1;durP2;ratioP2;P2;SDS_P1;SDS_P2;PMS_P1;PMS_P2;Temp;Humidity;BMP_temperature;BMP_pressure;BME280_temperature;BME280_humidity;BME280_pressure;Samples;Min_cycle;Max_cycle;Signal;HPM_P1;HPM_P2
2024/01/26 00:00:22;;;;;;;;;;;10.50;99.90;;;;;;5119980;28;19911;-77
2024/01/26 00:02:48;;;;;;;;;;;10.50;99.90;;;;;;5119311;28;19999;-78
2024/01/26 00:05:13;;;;;;;;;;;10.50;99.90;;;;;;5120005;28;19994;-79
2024/01/26 00:07:39;;;;;;;;;;;10.50;99.90;;;;;;5119862;28;19908;-78
2024/01/26 00:10:05;;;;;;;;;;;10.50;99.90;;;;;;5119223;28;19958;-78
2024/01/26 00:12:31;;;;;;;;;;;10.50;99.90;;;;;;5118898;28;19908;-77
2024/01/26 00:14:56;;;;;;;;;;;10.60;99.90;;;;;;5118913;28;19922;-78
2024/01/26 00:17:22;;;;;;;;;;;10.60;99.90;;;;;;5119162;27;19903;-77
2024/01/26 00:19:48;;;;;;;;;;;10.60;99.90;;;;;;5118626;28;20531;-77
2024/01/26 00:22:13;;;;;;;;;;;10.60;99.90;;;;;;5118981;28;19908;-78
2024/01/26 00:24:39;;;;;;;;;;;10.70;99.90;;;;;;5118766;28;19921;-76
2024/01/26 00:27:04;;;;;;;;;;;10.70;99.90;;;;;;5109069;28;19957;-77
2024/01/26 00:29:30;;;;;;;;;;;10.60;99.90;;;;;;5114740;28;19918;-78
2024/01/26 00:31:55;;;;;;;;;;;10.70;99.90;;;;;;5118719;28;19942;-78
2024/01/26 00:34:21;;;;;;;;;;;10.70;99.90;;;;;;5117300;28;19904;-78
2024/01/26 00:36:46;;;;;;;;;;;10.70;99.90;;;;;;5117275;28;19907;-78
2024/01/26 00:39:12;;;;;;;;;;;10.70;99.90;;;;;;5116201;28;19903;-79
2024/01/26 00:41:37;;;;;;;;;;;10.70;99.90;;;;;;5118647;28;19990;-78
2024/01/26 00:44:03;;;;;;;;;;;10.70;99.90;;;;;;5118595;28;20283;-77
2024/01/26 00:46:28;;;;;;;;;;;10.70;99.90;;;;;;5116800;28;20359;-78
2024/01/26 00:48:54;;;;;;;;;;;10.70;99.90;;;;;;5116894;28;19911;-78
2024/01/26 00:51:20;;;;;;;;;;;10.70;99.90;;;;;;5118482;28;19907;-78
2024/01/26 00:53:45;;;;;;;;;;;10.70;99.90;;;;;;5117948;28;19908;-78
2024/01/26 00:56:11;;;;;;;;;;;10.70;99.90;;;;;;5118393;28;19921;-78
2024/01/26 00:58:36;;;;;;;;;;;10.70;99.90;;;;;;5116890;28;19908;-78
2024/01/26 01:01:03;;;;;;;;;;;10.70;99.90;;;;;;5118267;27;19908;-78
2024/01/26 01:03:28;;;;;;;;;;;10.70;99.90;;;;;;5116680;28;19904;-78
2024/01/26 01:05:54;;;;;;;;;;;10.70;99.90;;;;;;5118241;28;19999;-78
2024/01/26 01:08:19;;;;;;;;;;;10.70;99.90;;;;;;5117233;28;19979;-78
2024/01/26 01:10:45;;;;;;;;;;;10.70;99.90;;;;;;5116590;28;19921;-78
2024/01/26 01:13:10;;;;;;;;;;;10.70;99.90;;;;;;5117706;28;20273;-78
2024/01/26 01:15:37;;;;;;;;;;;10.70;99.90;;;;;;5112527;27;19908;-78
2024/01/26 01:18:03;;;;;;;;;;;10.70;99.90;;;;;;5111240;28;19903;-78
2024/01/26 01:20:29;;;;;;;;;;;10.70;99.90;;;;;;5116352;28;20437;-78
2024/01/26 01:22:58;;;;;;;;;;;10.70;99.90;;;;;;5115831;28;19904;-78
2024/01/26 01:25:25;;;;;;;;;;;10.70;99.90;;;;;;5116933;28;20021;-78
2024/01/26 01:27:50;;;;;;;;;;;10.70;99.90;;;;;;5117016;28;19912;-79
2024/01/26 01:30:16;;;;;;;;;;;10.70;99.90;;;;;;5118031;28;19914;-78
2024/01/26 01:32:42;;;;;;;;;;;10.70;99.90;;;;;;5116479;28;20280;-78
2024/01/26 01:35:07;;;;;;;;;;;10.70;99.90;;;;;;5118347;28;19908;-78
2024/01/26 01:37:33;;;;;;;;;;;10.70;99.90;;;;;;5117740;27;19956;-78
2024/01/26 01:39:58;;;;;;;;;;;10.60;99.90;;;;;;5117663;28;19907;-78
2024/01/26 01:42:24;;;;;;;;;;;10.70;99.90;;;;;;5117052;28;19903;-79
2024/01/26 01:44:50;;;;;;;;;;;10.60;99.90;;;;;;5117494;28;19910;-78
2024/01/26 01:47:15;;;;;;;;;;;10.60;99.90;;;;;;5115437;27;20333;-77
2024/01/26 01:49:42;;;;;;;;;;;10.60;99.90;;;;;;5115953;28;19958;-78
2024/01/26 01:52:08;;;;;;;;;;;10.60;99.90;;;;;;5116704;28;19907;-78
2024/01/26 01:54:33;;;;;;;;;;;10.60;99.90;;;;;;5116637;28;19943;-79
2024/01/26 01:57:02;;;;;;;;;;;10.60;99.90;;;;;;5116267;28;20026;-78
2024/01/26 01:59:28;;;;;;;;;;;10.60;99.90;;;;;;5117319;28;19912;-78
2024/01/26 02:01:53;;;;;;;;;;;10.60;99.90;;;;;;5117151;28;20006;-79
2024/01/26 02:04:19;;;;;;;;;;;10.60;99.90;;;;;;5116929;28;19957;-79
2024/01/26 02:06:58;;;;;;;;;;;10.60;99.90;;;;;;5116708;28;19903;-79
2024/01/26 02:09:24;;;;;;;;;;;10.60;99.90;;;;;;5116600;28;20427;-78
2024/01/26 02:11:50;;;;;;;;;;;10.50;99.90;;;;;;5116930;28;19998;-78
2024/01/26 02:14:15;;;;;;;;;;;10.50;99.90;;;;;;5116794;28;19904;-78
2024/01/26 02:17:01;;;;;;;;;;;10.60;99.90;;;;;;5115089;28;19951;-77
2024/01/26 02:19:27;;;;;;;;;;;10.50;99.90;;;;;;5116739;28;19910;-79
2024/01/26 02:21:53;;;;;;;;;;;10.50;99.90;;;;;;5116151;28;19912;-78
2024/01/26 02:24:18;;;;;;;;;;;10.50;99.90;;;;;;5116653;28;19914;-78
2024/01/26 02:26:44;;;;;;;;;;;10.50;99.90;;;;;;5116495;28;19979;-77
2024/01/26 02:29:09;;;;;;;;;;;10.50;99.90;;;;;;5116811;28;20291;-79
2024/01/26 02:31:35;;;;;;;;;;;10.40;99.90;;;;;;5115187;28;20003;-76
2024/01/26 02:34:01;;;;;;;;;;;10.40;99.90;;;;;;5115258;28;19926;-78
2024/01/26 02:36:27;;;;;;;;;;;10.40;99.90;;;;;;5116202;28;19978;-77
2024/01/26 02:38:53;;;;;;;;;;;10.40;99.90;;;;;;5116301;28;19908;-78
2024/01/26 02:41:18;;;;;;;;;;;10.40;99.90;;;;;;5116073;28;19911;-78
2024/01/26 02:43:44;;;;;;;;;;;10.30;99.90;;;;;;5115406;28;19949;-77
2024/01/26 02:46:10;;;;;;;;;;;10.30;99.90;;;;;;5112501;28;19911;-78
2024/01/26 02:48:35;;;;;;;;;;;10.30;99.90;;;;;;5116523;28;19903;-78
2024/01/26 02:51:01;;;;;;;;;;;10.30;99.90;;;;;;5115883;28;20292;-78
2024/01/26 02:53:26;;;;;;;;;;;10.30;99.90;;;;;;5103835;28;19975;-77
2024/01/26 02:55:52;;;;;;;;;;;10.30;99.90;;;;;;5112376;28;20428;-78
2024/01/26 02:58:18;;;;;;;;;;;10.30;99.90;;;;;;5116335;28;20393;-78
2024/01/26 03:00:43;;;;;;;;;;;10.20;99.90;;;;;;5116365;28;19964;-78
2024/01/26 03:03:09;;;;;;;;;;;10.20;99.90;;;;;;5115807;28;19914;-78
2024/01/26 03:05:35;;;;;;;;;;;10.30;99.90;;;;;;5116684;28;19908;-78
2024/01/26 03:08:00;;;;;;;;;;;10.30;99.90;;;;;;5115393;28;19908;-79
2024/01/26 03:10:26;;;;;;;;;;;10.20;99.90;;;;;;5115278;28;19910;-79
2024/01/26 03:12:51;;;;;;;;;;;10.30;99.90;;;;;;5116383;28;19910;-78
2024/01/26 03:15:17;;;;;;;;;;;10.20;99.90;;;;;;5115640;28;19963;-78
2024/01/26 03:17:42;;;;;;;;;;;10.20;99.90;;;;;;5114784;28;19959;-78
2024/01/26 03:20:08;;;;;;;;;;;10.20;99.90;;;;;;5114222;28;19911;-78
2024/01/26 03:22:34;;;;;;;;;;;10.20;99.90;;;;;;5115800;28;20437;-78
2024/01/26 03:24:59;;;;;;;;;;;10.20;99.90;;;;;;5115465;28;20372;-79
2024/01/26 03:27:25;;;;;;;;;;;10.20;99.90;;;;;;5116339;28;19915;-78
2024/01/26 03:29:50;;;;;;;;;;;10.20;99.90;;;;;;5115771;28;19947;-78
2024/01/26 03:32:16;;;;;;;;;;;10.20;99.90;;;;;;5116085;28;20364;-78
2024/01/26 03:34:41;;;;;;;;;;;10.20;99.90;;;;;;5114452;28;20359;-78
2024/01/26 03:37:07;;;;;;;;;;;10.20;99.90;;;;;;5115799;28;20386;-78
2024/01/26 03:39:32;;;;;;;;;;;10.10;99.90;;;;;;5115613;28;20378;-78
2024/01/26 03:41:58;;;;;;;;;;;10.10;99.90;;;;;;5116062;28;19911;-79
2024/01/26 03:44:23;;;;;;;;;;;10.10;99.90;;;;;;5115714;28;19908;-78
2024/01/26 03:46:49;;;;;;;;;;;10.10;99.90;;;;;;5113198;28;19996;-79
2024/01/26 03:49:14;;;;;;;;;;;10.10;99.90;;;;;;5118166;28;20009;-78
2024/01/26 03:51:40;;;;;;;;;;;10.10;99.90;;;;;;5119189;28;20460;-78
2024/01/26 03:54:05;;;;;;;;;;;10.10;99.90;;;;;;5119094;28;20007;-79
2024/01/26 03:56:31;;;;;;;;;;;10.10;99.90;;;;;;5117932;28;19923;-78
2024/01/26 03:58:57;;;;;;;;;;;10.10;99.90;;;;;;5118806;28;19907;-78
2024/01/26 04:01:22;;;;;;;;;;;10.10;99.90;;;;;;5108332;28;19947;-79
2024/01/26 04:03:48;;;;;;;;;;;10.10;99.90;;;;;;5098941;28;19962;-79
2024/01/26 04:06:13;;;;;;;;;;;10.10;99.90;;;;;;5096708;28;19904;-79
2024/01/26 04:08:39;;;;;;;;;;;10.10;99.90;;;;;;5109550;28;19904;-79
2024/01/26 04:11:04;;;;;;;;;;;10.10;99.90;;;;;;5118291;28;19908;-79
2024/01/26 04:13:30;;;;;;;;;;;10.10;99.90;;;;;;5118716;28;19912;-77
2024/01/26 04:15:55;;;;;;;;;;;10.10;99.90;;;;;;5113687;28;20346;-78
2024/01/26 04:18:21;;;;;;;;;;;10.10;99.90;;;;;;5117711;28;19915;-77
2024/01/26 04:20:48;;;;;;;;;;;10.10;99.90;;;;;;5118918;28;19911;-79
2024/01/26 04:23:14;;;;;;;;;;;10.00;99.90;;;;;;5117320;28;19973;-79
2024/01/26 04:25:39;;;;;;;;;;;10.00;99.90;;;;;;5118541;27;19903;-79
2024/01/26 04:28:05;;;;;;;;;;;10.00;99.90;;;;;;5117435;28;19915;-79
2024/01/26 04:30:31;;;;;;;;;;;10.00;99.90;;;;;;5115759;28;19918;-78
2024/01/26 04:32:56;;;;;;;;;;;10.00;99.90;;;;;;5113869;28;19911;-79
2024/01/26 04:35:22;;;;;;;;;;;10.00;99.90;;;;;;5117642;28;19907;-80
2024/01/26 04:37:47;;;;;;;;;;;10.00;99.90;;;;;;5117423;28;19958;-79
2024/01/26 04:40:13;;;;;;;;;;;10.00;99.90;;;;;;5119261;28;19918;-79
2024/01/26 04:42:38;;;;;;;;;;;10.00;99.90;;;;;;5117442;27;19903;-79
2024/01/26 04:45:04;;;;;;;;;;;9.90;99.90;;;;;;5118620;28;20359;-80
2024/01/26 04:47:30;;;;;;;;;;;10.00;99.90;;;;;;5115376;28;19904;-80
2024/01/26 04:49:55;;;;;;;;;;;9.90;99.90;;;;;;5117211;28;19911;-79
2024/01/26 04:52:21;;;;;;;;;;;9.90;99.90;;;;;;5116968;28;19957;-79
2024/01/26 04:54:48;;;;;;;;;;;9.90;99.90;;;;;;5118279;28;19907;-78
2024/01/26 04:57:13;;;;;;;;;;;9.90;99.90;;;;;;5117597;28;19919;-78
2024/01/26 04:59:39;;;;;;;;;;;9.90;99.90;;;;;;5117167;27;19908;-78
2024/01/26 05:02:04;;;;;;;;;;;9.90;99.90;;;;;;5117886;27;20299;-78
2024/01/26 05:04:30;;;;;;;;;;;9.90;99.90;;;;;;5118229;28;19918;-78
2024/01/26 05:06:56;;;;;;;;;;;9.90;99.90;;;;;;5116648;28;19907;-78
2024/01/26 05:09:22;;;;;;;;;;;9.80;99.90;;;;;;5116674;28;20523;-78
2024/01/26 05:11:47;;;;;;;;;;;9.80;99.90;;;;;;5116225;28;20014;-79
2024/01/26 05:14:13;;;;;;;;;;;9.80;99.90;;;;;;5116528;28;19998;-79
2024/01/26 05:16:38;;;;;;;;;;;9.80;99.90;;;;;;5117612;28;19985;-79
2024/01/26 05:19:04;;;;;;;;;;;9.80;99.90;;;;;;5116638;28;20028;-80
2024/01/26 05:21:29;;;;;;;;;;;9.80;99.90;;;;;;5116834;27;19918;-79
2024/01/26 05:23:55;;;;;;;;;;;9.80;99.90;;;;;;5108317;28;19946;-78
2024/01/26 05:26:20;;;;;;;;;;;9.80;99.90;;;;;;5113558;28;19937;-78
2024/01/26 05:28:46;;;;;;;;;;;9.70;99.90;;;;;;5116191;28;19904;-79
2024/01/26 05:31:12;;;;;;;;;;;9.70;99.90;;;;;;5117079;28;19908;-77
2024/01/26 05:33:37;;;;;;;;;;;9.70;99.90;;;;;;5116086;28;19911;-78
2024/01/26 05:36:03;;;;;;;;;;;9.70;99.90;;;;;;5117362;28;19910;-78
2024/01/26 05:38:29;;;;;;;;;;;9.80;99.90;;;;;;5115832;28;19950;-78
2024/01/26 05:40:54;;;;;;;;;;;9.70;99.90;;;;;;5117007;28;19933;-79
2024/01/26 05:43:20;;;;;;;;;;;9.70;99.90;;;;;;5117226;28;19927;-79
2024/01/26 05:45:46;;;;;;;;;;;9.70;99.90;;;;;;5114079;28;19900;-78
2024/01/26 05:48:11;;;;;;;;;;;9.70;99.90;;;;;;5115959;28;19911;-79
2024/01/26 05:50:38;;;;;;;;;;;9.70;99.90;;;;;;5116590;28;19934;-79
2024/01/26 05:53:04;;;;;;;;;;;9.70;99.90;;;;;;5115623;28;19904;-79
2024/01/26 05:55:29;;;;;;;;;;;9.70;99.90;;;;;;5116523;28;19908;-80
2024/01/26 05:57:55;;;;;;;;;;;9.70;99.90;;;;;;5116884;28;19912;-79
2024/01/26 06:00:20;;;;;;;;;;;9.70;99.90;;;;;;5116630;28;19912;-79
2024/01/26 06:02:46;;;;;;;;;;;9.70;99.90;;;;;;5115907;28;19995;-78
2024/01/26 06:05:11;;;;;;;;;;;9.70;99.90;;;;;;5116674;28;19903;-79
2024/01/26 06:07:37;;;;;;;;;;;9.70;99.90;;;;;;5116550;28;20018;-79
2024/01/26 06:10:02;;;;;;;;;;;9.70;99.90;;;;;;5116152;28;19929;-79
2024/01/26 06:12:28;;;;;;;;;;;9.60;99.90;;;;;;5117099;27;19947;-79
2024/01/26 06:14:54;;;;;;;;;;;9.60;99.90;;;;;;5116599;28;20336;-80
2024/01/26 06:17:19;;;;;;;;;;;9.60;99.90;;;;;;5117406;28;19904;-79
2024/01/26 06:19:45;;;;;;;;;;;9.60;99.90;;;;;;5116384;28;19911;-80
2024/01/26 06:22:11;;;;;;;;;;;9.60;99.90;;;;;;5115100;28;19912;-79
2024/01/26 06:24:36;;;;;;;;;;;9.60;99.90;;;;;;5114997;28;20357;-79
2024/01/26 06:27:02;;;;;;;;;;;9.60;99.90;;;;;;5102674;28;19918;-78
2024/01/26 06:29:28;;;;;;;;;;;9.60;99.90;;;;;;5100211;28;19970;-79
2024/01/26 06:31:53;;;;;;;;;;;9.60;99.90;;;;;;5114429;28;19922;-79
2024/01/26 06:34:19;;;;;;;;;;;9.60;99.90;;;;;;5114929;28;19904;-79
2024/01/26 06:36:45;;;;;;;;;;;9.60;99.90;;;;;;5116180;27;19903;-78
2024/01/26 06:39:11;;;;;;;;;;;9.60;99.90;;;;;;5115975;28;19904;-78
2024/01/26 06:41:42;;;;;;;;;;;9.60;99.90;;;;;;5116587;28;19911;-79
2024/01/26 06:44:08;;;;;;;;;;;9.60;99.90;;;;;;5115739;28;19904;-76
2024/01/26 06:46:33;;;;;;;;;;;9.60;99.90;;;;;;5114364;28;19915;-78
2024/01/26 06:49:01;;;;;;;;;;;9.60;99.90;;;;;;5114800;28;19952;-78
2024/01/26 06:51:27;;;;;;;;;;;9.60;99.90;;;;;;5116352;28;19908;-78
2024/01/26 06:53:52;;;;;;;;;;;9.60;99.90;;;;;;5115150;28;20283;-78
2024/01/26 06:56:18;;;;;;;;;;;9.60;99.90;;;;;;5116059;28;19923;-78
2024/01/26 06:58:45;;;;;;;;;;;9.50;99.90;;;;;;5115520;28;19962;-77
2024/01/26 07:01:11;;;;;;;;;;;9.50;99.90;;;;;;5104466;28;20325;-79
2024/01/26 07:03:36;;;;;;;;;;;9.50;99.90;;;;;;5115912;28;19915;-78
2024/01/26 07:06:02;;;;;;;;;;;9.50;99.90;;;;;;5114413;28;19908;-79
2024/01/26 07:08:27;;;;;;;;;;;9.60;99.90;;;;;;5113981;28;19955;-78
2024/01/26 07:10:53;;;;;;;;;;;9.50;99.90;;;;;;5106077;28;19955;-78
2024/01/26 07:13:19;;;;;;;;;;;9.50;99.90;;;;;;5110613;28;19908;-79
2024/01/26 07:15:44;;;;;;;;;;;9.50;99.90;;;;;;5115859;28;19912;-79
2024/01/26 07:18:10;;;;;;;;;;;9.50;99.90;;;;;;5115478;28;19998;-79
2024/01/26 07:20:35;;;;;;;;;;;9.50;99.90;;;;;;5115939;28;19933;-80
2024/01/26 07:23:01;;;;;;;;;;;9.50;99.90;;;;;;5116579;28;19904;-79
2024/01/26 07:25:27;;;;;;;;;;;9.50;99.90;;;;;;5119676;27;20441;-79
2024/01/26 07:27:52;;;;;;;;;;;9.50;99.90;;;;;;5118908;28;19912;-79
2024/01/26 07:30:18;;;;;;;;;;;9.50;99.90;;;;;;5118254;28;19930;-78
2024/01/26 07:32:44;;;;;;;;;;;9.60;99.90;;;;;;5119198;28;19935;-79
2024/01/26 07:35:10;;;;;;;;;;;9.60;99.90;;;;;;5100189;28;19950;-79
2024/01/26 07:37:35;;;;;;;;;;;9.60;99.90;;;;;;5103311;28;19918;-79
2024/01/26 07:40:04;;;;;;;;;;;9.60;99.90;;;;;;5100133;28;19912;-79
2024/01/26 07:42:30;;;;;;;;;;;9.60;99.90;;;;;;5109343;28;19904;-79
2024/01/26 07:44:55;;;;;;;;;;;9.60;99.90;;;;;;5097564;28;19964;-79
2024/01/26 07:47:22;;;;;;;;;;;9.60;99.90;;;;;;5111509;28;19914;-79
2024/01/26 07:49:48;;;;;;;;;;;9.70;99.90;;;;;;5108190;27;19915;-79
2024/01/26 07:52:14;;;;;;;;;;;9.70;99.90;;;;;;5093095;28;20010;-80
2024/01/26 07:54:39;;;;;;;;;;;9.70;99.90;;;;;;5097038;28;20498;-79
2024/01/26 07:57:05;;;;;;;;;;;9.80;99.90;;;;;;5101895;28;20737;-80
2024/01/26 07:59:31;;;;;;;;;;;9.80;99.90;;;;;;5112913;28;19998;-79
2024/01/26 08:01:56;;;;;;;;;;;9.70;99.90;;;;;;5095698;28;20450;-79
2024/01/26 08:04:22;;;;;;;;;;;9.80;99.90;;;;;;5098299;28;19982;-78
2024/01/26 08:06:47;;;;;;;;;;;9.80;99.90;;;;;;5112132;28;20368;-79
2024/01/26 08:09:13;;;;;;;;;;;9.80;99.90;;;;;;5103181;28;19922;-79
2024/01/26 08:11:38;;;;;;;;;;;9.80;99.90;;;;;;5105667;28;19907;-81
2024/01/26 08:14:04;;;;;;;;;;;9.70;99.90;;;;;;5107843;28;20405;-79
2024/01/26 08:16:29;;;;;;;;;;;9.80;99.90;;;;;;5099947;28;19926;-79
2024/01/26 08:18:55;;;;;;;;;;;9.80;99.90;;;;;;5101253;28;19915;-79
2024/01/26 08:21:20;;;;;;;;;;;9.80;99.90;;;;;;5106548;28;19923;-79
2024/01/26 08:23:46;;;;;;;;;;;9.90;99.90;;;;;;5109316;28;19914;-80
2024/01/26 08:26:13;;;;;;;;;;;9.90;99.90;;;;;;5110181;28;19914;-79
2024/01/26 08:28:38;;;;;;;;;;;9.90;99.90;;;;;;5107945;28;20323;-79
2024/01/26 08:31:05;;;;;;;;;;;9.90;99.90;;;;;;5109159;28;19939;-80
2024/01/26 08:33:31;;;;;;;;;;;9.80;99.90;;;;;;5103761;28;19912;-78
2024/01/26 08:35:56;;;;;;;;;;;9.80;99.90;;;;;;5108547;28;19953;-79
2024/01/26 08:38:22;;;;;;;;;;;9.90;99.90;;;;;;5109151;28;19946;-79
2024/01/26 08:40:47;;;;;;;;;;;10.00;99.90;;;;;;5109938;28;19984;-79
2024/01/26 08:43:13;;;;;;;;;;;10.00;99.90;;;;;;5107604;28;19911;-79
2024/01/26 08:45:38;;;;;;;;;;;10.00;99.90;;;;;;5102820;28;20494;-79
2024/01/26 08:48:04;;;;;;;;;;;10.10;99.90;;;;;;5109469;28;19912;-78
2024/01/26 08:50:30;;;;;;;;;;;10.00;99.90;;;;;;5107863;28;19917;-79
2024/01/26 08:52:55;;;;;;;;;;;10.10;99.90;;;;;;5106813;28;19915;-79
2024/01/26 08:55:21;;;;;;;;;;;10.10;99.90;;;;;;5107085;28;19915;-78
2024/01/26 08:57:48;;;;;;;;;;;10.20;99.90;;;;;;5109923;28;20253;-80
2024/01/26 09:00:15;;;;;;;;;;;10.20;99.90;;;;;;5113910;28;20002;-80
2024/01/26 09:02:40;;;;;;;;;;;10.20;99.90;;;;;;5095308;28;19928;-81
2024/01/26 09:05:06;;;;;;;;;;;10.30;99.90;;;;;;5104898;28;19911;-80
2024/01/26 09:07:32;;;;;;;;;;;10.30;99.90;;;;;;5112062;28;19908;-80
2024/01/26 09:09:57;;;;;;;;;;;10.30;99.90;;;;;;5112400;28;19915;-80
2024/01/26 09:12:23;;;;;;;;;;;10.40;99.90;;;;;;5110676;28;19933;-79
2024/01/26 09:14:48;;;;;;;;;;;10.40;99.90;;;;;;5114741;28;19908;-80
2024/01/26 09:17:14;;;;;;;;;;;10.40;99.90;;;;;;5112118;28;19908;-79
2024/01/26 09:19:39;;;;;;;;;;;10.40;99.90;;;;;;5110055;28;19912;-80
2024/01/26 09:22:06;;;;;;;;;;;10.50;99.90;;;;;;5108194;28;20454;-80
2024/01/26 09:24:32;;;;;;;;;;;10.40;99.90;;;;;;5113759;28;19994;-79
2024/01/26 09:26:57;;;;;;;;;;;10.50;99.90;;;;;;5111156;28;19969;-79
2024/01/26 09:29:26;;;;;;;;;;;10.60;99.90;;;;;;5115240;28;19907;-80
2024/01/26 09:31:54;;;;;;;;;;;10.50;99.90;;;;;;5111005;28;19908;-79
2024/01/26 09:34:19;;;;;;;;;;;10.50;99.90;;;;;;5114734;28;19904;-79
2024/01/26 09:36:45;;;;;;;;;;;10.60;99.90;;;;;;5108513;28;19952;-80
2024/01/26 09:39:10;;;;;;;;;;;10.60;99.90;;;;;;5111758;28;20833;-79
2024/01/26 09:41:36;;;;;;;;;;;10.70;99.90;;;;;;5111447;28;21169;-79
2024/01/26 09:44:02;;;;;;;;;;;10.70;99.90;;;;;;5112152;28;20373;-79
2024/01/26 09:46:30;;;;;;;;;;;10.70;99.90;;;;;;5107263;27;19915;-79
2024/01/26 09:48:57;;;;;;;;;;;10.60;99.90;;;;;;5111100;28;19908;-79
2024/01/26 09:51:23;;;;;;;;;;;10.70;99.90;;;;;;5106330;28;19907;-79
2024/01/26 09:53:51;;;;;;;;;;;10.80;99.90;;;;;;5108864;28;20350;-80
2024/01/26 09:56:17;;;;;;;;;;;10.80;99.90;;;;;;5107109;28;19939;-80
2024/01/26 09:58:43;;;;;;;;;;;10.60;99.90;;;;;;5109231;28;19941;-77
2024/01/26 10:01:11;;;;;;;;;;;10.70;99.90;;;;;;5110098;28;20402;-77
2024/01/26 10:03:36;;;;;;;;;;;10.80;99.90;;;;;;5107084;28;19953;-75
2024/01/26 10:06:02;;;;;;;;;;;10.80;99.90;;;;;;5110542;28;20375;-76
2024/01/26 10:08:36;;;;;;;;;;;10.80;99.90;;;;;;5108156;28;20498;-76
2024/01/26 10:11:02;;;;;;;;;;;10.80;99.90;;;;;;5112936;28;20406;-76
2024/01/26 10:13:27;;;;;;;;;;;10.80;99.90;;;;;;5113839;28;19904;-76
2024/01/26 10:16:02;;;;;;;;;;;10.90;99.90;;;;;;5110831;28;19910;-77
2024/01/26 10:18:37;;;;;;;;;;;10.90;99.90;;;;;;5105530;28;20474;-76
2024/01/26 10:21:02;;;;;;;;;;;11.00;99.90;;;;;;5110902;28;19918;-77
2024/01/26 10:23:28;;;;;;;;;;;11.10;99.90;;;;;;5107426;28;19986;-78
2024/01/26 10:25:53;;;;;;;;;;;11.10;99.90;;;;;;5105945;28;19904;-77
2024/01/26 10:28:20;;;;;;;;;;;11.20;99.90;;;;;;5108874;28;19912;-76
2024/01/26 10:30:45;;;;;;;;;;;11.20;99.90;;;;;;5107218;28;19914;-76
2024/01/26 10:33:12;;;;;;;;;;;11.20;99.90;;;;;;5111905;28;19935;-76
2024/01/26 10:35:38;;;;;;;;;;;11.20;99.90;;;;;;5109705;28;19911;-76
2024/01/26 10:38:05;;;;;;;;;;;11.00;99.90;;;;;;5109018;28;19904;-78
2024/01/26 10:40:31;;;;;;;;;;;11.10;99.90;;;;;;5112192;28;20401;-79
2024/01/26 10:42:57;;;;;;;;;;;11.20;99.90;;;;;;5104560;28;19973;-78
2024/01/26 10:45:22;;;;;;;;;;;11.30;99.90;;;;;;5109773;28;20542;-78
2024/01/26 10:47:48;;;;;;;;;;;11.50;99.90;;;;;;5108867;28;19908;-79
2024/01/26 10:50:14;;;;;;;;;;;11.40;99.90;;;;;;5107130;28;19971;-79
2024/01/26 10:52:40;;;;;;;;;;;11.50;99.90;;;;;;5109596;28;20512;-79
2024/01/26 10:55:06;;;;;;;;;;;11.60;99.90;;;;;;5115250;28;19911;-78
2024/01/26 10:57:31;;;;;;;;;;;11.70;99.90;;;;;;5116202;28;19926;-76
2024/01/26 10:59:57;;;;;;;;;;;11.70;99.90;;;;;;5118476;28;19907;-77
2024/01/26 11:02:27;;;;;;;;;;;11.60;99.90;;;;;;5115392;28;19912;-77
2024/01/26 11:04:52;;;;;;;;;;;11.50;99.90;;;;;;5107618;28;19916;-78
2024/01/26 11:07:18;;;;;;;;;;;11.60;99.90;;;;;;5110166;28;19911;-77
2024/01/26 11:09:46;;;;;;;;;;;11.60;99.90;;;;;;5105504;28;19943;-78
2024/01/26 11:12:22;;;;;;;;;;;11.60;99.90;;;;;;5105321;28;20001;-77
2024/01/26 11:15:01;;;;;;;;;;;11.60;99.90;;;;;;5107476;28;19907;-77
2024/01/26 11:17:27;;;;;;;;;;;11.70;99.90;;;;;;5104639;28;19912;-76
2024/01/26 11:19:59;;;;;;;;;;;11.60;99.90;;;;;;5111482;28;19923;-77
2024/01/26 11:22:31;;;;;;;;;;;11.60;99.90;;;;;;5106626;28;19907;-77
2024/01/26 11:24:58;;;;;;;;;;;11.60;99.90;;;;;;5108192;28;19914;-78
2024/01/26 11:27:24;;;;;;;;;;;11.70;99.90;;;;;;5112335;28;19908;-76
2024/01/26 11:29:49;;;;;;;;;;;11.60;99.90;;;;;;5106114;28;20477;-78
2024/01/26 11:32:16;;;;;;;;;;;11.50;99.90;;;;;;5106411;28;19946;-78
2024/01/26 11:34:42;;;;;;;;;;;11.30;99.90;;;;;;5109559;28;19912;-78
2024/01/26 11:37:14;;;;;;;;;;;11.30;99.90;;;;;;5101155;28;20384;-78
2024/01/26 11:39:40;;;;;;;;;;;11.40;99.90;;;;;;5108699;28;19908;-78
2024/01/26 11:42:10;;;;;;;;;;;11.60;99.90;;;;;;5110669;28;20019;-78
2024/01/26 11:44:40;;;;;;;;;;;11.70;99.90;;;;;;5107039;28;19973;-76
2024/01/26 11:47:09;;;;;;;;;;;11.80;99.90;;;;;;5109509;28;19955;-77
2024/01/26 11:49:38;;;;;;;;;;;11.90;99.90;;;;;;5109098;28;20691;-77
2024/01/26 11:52:04;;;;;;;;;;;12.10;99.90;;;;;;5107498;28;19938;-77
2024/01/26 11:54:31;;;;;;;;;;;12.20;99.90;;;;;;5107177;28;19907;-77
2024/01/26 11:56:56;;;;;;;;;;;12.20;99.90;;;;;;5110661;28;19968;-78
2024/01/26 11:59:22;;;;;;;;;;;12.30;99.90;;;;;;5105740;27;19908;-79
2024/01/26 12:01:47;;;;;;;;;;;12.20;99.90;;;;;;5110112;28;19915;-78
2024/01/26 12:04:13;;;;;;;;;;;12.30;99.90;;;;;;5106661;28;19943;-77
2024/01/26 12:06:38;;;;;;;;;;;12.30;99.90;;;;;;5107590;28;19903;-78
2024/01/26 12:09:04;;;;;;;;;;;12.30;99.90;;;;;;5098859;28;19912;-77
2024/01/26 12:11:29;;;;;;;;;;;12.20;99.90;;;;;;5103035;28;20640;-75
2024/01/26 12:13:55;;;;;;;;;;;12.10;99.90;;;;;;5106391;28;20024;-79
2024/01/26 12:16:22;;;;;;;;;;;12.10;99.90;;;;;;5109642;28;20428;-80
2024/01/26 12:18:47;;;;;;;;;;;12.00;99.90;;;;;;5105123;28;19914;-79
2024/01/26 12:21:14;;;;;;;;;;;12.00;99.90;;;;;;5108782;28;19915;-78
2024/01/26 12:23:39;;;;;;;;;;;12.10;99.90;;;;;;5109934;28;20360;-79
2024/01/26 12:26:07;;;;;;;;;;;12.10;99.90;;;;;;5111490;28;19952;-79
2024/01/26 12:28:32;;;;;;;;;;;12.10;99.90;;;;;;5107605;28;19907;-79
2024/01/26 12:30:58;;;;;;;;;;;12.10;99.90;;;;;;5111322;28;19957;-80
2024/01/26 12:33:24;;;;;;;;;;;12.20;99.90;;;;;;5106875;28;19908;-79
2024/01/26 12:35:51;;;;;;;;;;;12.20;99.90;;;;;;5111971;28;19953;-80
2024/01/26 12:38:17;;;;;;;;;;;12.30;99.90;;;;;;5108123;28;21358;-80
2024/01/26 12:40:42;;;;;;;;;;;12.30;99.90;;;;;;5109133;28;19942;-79
2024/01/26 12:43:08;;;;;;;;;;;12.30;99.90;;;;;;5105660;28;19923;-79
2024/01/26 12:45:34;;;;;;;;;;;12.40;99.90;;;;;;5111921;28;19908;-79
2024/01/26 12:48:00;;;;;;;;;;;12.40;99.90;;;;;;5113058;28;19908;-80
2024/01/26 12:50:25;;;;;;;;;;;12.40;99.90;;;;;;5111491;28;19904;-77
2024/01/26 12:52:51;;;;;;;;;;;12.40;99.90;;;;;;5110821;28;19911;-79
2024/01/26 12:55:17;;;;;;;;;;;12.30;99.90;;;;;;5114539;28;19912;-79
2024/01/26 12:57:42;;;;;;;;;;;12.30;99.90;;;;;;5109486;28;20373;-78
2024/01/26 13:00:08;;;;;;;;;;;12.40;99.90;;;;;;5114175;28;20280;-77
2024/01/26 13:02:34;;;;;;;;;;;12.40;99.90;;;;;;5115972;28;20272;-78
2024/01/26 13:05:00;;;;;;;;;;;12.40;99.90;;;;;;5113231;28;19911;-76
2024/01/26 13:07:26;;;;;;;;;;;12.60;99.90;;;;;;5113078;28;19994;-78
2024/01/26 13:09:52;;;;;;;;;;;12.50;99.90;;;;;;5115610;28;19954;-79
2024/01/26 13:12:17;;;;;;;;;;;12.70;99.90;;;;;;5110822;28;19914;-77
2024/01/26 13:14:43;;;;;;;;;;;12.70;99.90;;;;;;5113892;28;19911;-76
2024/01/26 13:17:09;;;;;;;;;;;12.70;99.90;;;;;;5112491;28;20379;-76
2024/01/26 13:19:35;;;;;;;;;;;12.70;99.90;;;;;;5112668;28;20367;-77
2024/01/26 13:22:01;;;;;;;;;;;12.70;99.90;;;;;;5111248;28;20367;-77
2024/01/26 13:24:26;;;;;;;;;;;12.70;99.90;;;;;;5111031;28;20359;-78
2024/01/26 13:26:52;;;;;;;;;;;12.70;99.90;;;;;;5112368;28;19911;-78
2024/01/26 13:29:17;;;;;;;;;;;12.70;99.90;;;;;;5115586;28;19907;-79
2024/01/26 13:31:43;;;;;;;;;;;12.80;99.90;;;;;;5108342;28;19908;-80
2024/01/26 13:34:12;;;;;;;;;;;12.60;99.90;;;;;;5113306;28;19903;-79
2024/01/26 13:36:37;;;;;;;;;;;12.70;99.90;;;;;;5111864;28;19904;-79
2024/01/26 13:39:04;;;;;;;;;;;12.60;99.90;;;;;;5111464;28;19915;-77
2024/01/26 13:41:30;;;;;;;;;;;12.70;99.90;;;;;;5113799;28;19912;-78
2024/01/26 13:43:56;;;;;;;;;;;12.80;99.90;;;;;;5111795;28;20406;-77
2024/01/26 13:46:21;;;;;;;;;;;12.80;99.90;;;;;;5110758;28;19915;-78
2024/01/26 13:48:47;;;;;;;;;;;12.80;99.90;;;;;;5114553;28;19911;-79
2024/01/26 13:51:12;;;;;;;;;;;12.70;99.90;;;;;;5107844;28;19904;-78
2024/01/26 13:53:38;;;;;;;;;;;12.80;99.90;;;;;;5112939;28;19943;-77
2024/01/26 13:56:04;;;;;;;;;;;12.70;99.90;;;;;;5114864;28;19963;-78
2024/01/26 13:58:30;;;;;;;;;;;12.80;99.90;;;;;;5112812;28;19904;-78
2024/01/26 14:00:55;;;;;;;;;;;12.80;99.90;;;;;;5110685;28;20298;-77
2024/01/26 14:03:21;;;;;;;;;;;12.70;99.90;;;;;;5115349;28;19951;-76
2024/01/26 14:05:46;;;;;;;;;;;12.70;99.90;;;;;;5110910;28;19904;-76
2024/01/26 14:08:12;;;;;;;;;;;12.70;99.90;;;;;;5113129;28;19911;-75
2024/01/26 14:10:39;;;;;;;;;;;12.60;99.90;;;;;;5110286;28;20002;-77
2024/01/26 14:13:07;;;;;;;;;;;12.60;99.90;;;;;;5113365;28;20341;-77